Time;durP1;ratioP1;P1;durP2;ratioP2;P2;SDS_P1;SDS_P2;PMS_P1;PMS_P2;Temp;Humidity;BMP_temperature;BMP_pressure;BME280_temperature;BME280_humidity;BME280_pressure;Samples;Min_cycle;Max_cycle;Signal;HPM_P1;HPM_P2
2022/05/17 00:01:42;;;;;;;2.90;2.73;;;20.70;47.00;;;;;;5018775;28;20219;-58
2022/05/17 00:04:08;;;;;;;2.40;2.30;;;20.70;47.00;;;;;;5020348;28;20922;-58
2022/05/17 00:06:34;;;;;;;2.80;2.70;;;20.70;47.00;;;;;;5017101;28;20268;-58
2022/05/17 00:09:00;;;;;;;2.83;2.70;;;20.70;47.00;;;;;;5023869;28;20219;-58
2022/05/17 00:11:26;;;;;;;2.73;2.53;;;20.70;47.00;;;;;;5015840;28;20445;-58
2022/05/17 00:13:51;;;;;;;2.50;2.40;;;20.70;47.00;;;;;;5022527;28;20278;-58
2022/05/17 00:16:17;;;;;;;2.60;2.50;;;20.70;47.00;;;;;;5013806;28;20876;-58
2022/05/17 00:18:43;;;;;;;2.90;2.70;;;20.70;47.00;;;;;;5019533;28;20222;-58
2022/05/17 00:21:09;;;;;;;2.67;2.57;;;20.70;47.00;;;;;;5018833;28;20232;-59
2022/05/17 00:23:38;;;;;;;2.53;2.43;;;20.70;47.00;;;;;;5017100;28;20306;-58
2022/05/17 00:26:06;;;;;;;2.33;2.23;;;20.70;47.00;;;;;;5029699;28;20969;-58
2022/05/17 00:28:32;;;;;;;2.07;1.97;;;20.70;47.00;;;;;;5016173;28;20442;-58
2022/05/17 00:31:00;;;;;;;2.67;2.57;;;20.70;47.80;;;;;;5017375;28;20507;-58
2022/05/17 00:33:26;;;;;;;2.23;2.13;;;20.70;47.00;;;;;;5017635;28;20444;-58
2022/05/17 00:35:52;;;;;;;2.40;2.30;;;20.70;47.00;;;;;;5017288;28;20457;-58
2022/05/17 00:38:18;;;;;;;2.37;2.27;;;20.70;47.00;;;;;;5014412;28;20466;-58
2022/05/17 00:40:44;;;;;;;2.77;2.67;;;20.70;47.00;;;;;;5021157;28;20215;-58
2022/05/17 00:43:13;;;;;;;2.60;2.50;;;20.70;47.00;;;;;;5017259;28;20639;-58
2022/05/17 00:45:46;;;;;;;2.53;2.43;;;20.70;47.10;;;;;;5019605;28;20985;-58
2022/05/17 00:48:13;;;;;;;3.57;2.40;;;20.70;47.00;;;;;;5016927;28;20453;-58
2022/05/17 00:50:47;;;;;;;3.40;2.30;;;20.70;47.00;;;;;;5018930;28;20499;-58
2022/05/17 00:53:31;;;;;;;3.00;2.80;;;20.70;47.00;;;;;;5018411;28;20453;-58
2022/05/17 00:56:06;;;;;;;2.87;2.77;;;20.70;47.10;;;;;;5018059;28;20479;-58
2022/05/17 00:58:36;;;;;;;2.20;2.10;;;20.70;47.10;;;;;;5016664;28;20520;-59
2022/05/17 01:01:11;;;;;;;2.17;2.07;;;20.70;47.10;;;;;;5012648;28;20472;-59
2022/05/17 01:03:54;;;;;;;2.53;2.43;;;20.70;47.00;;;;;;5017267;28;20452;-58
2022/05/17 01:06:21;;;;;;;2.53;2.43;;;20.60;47.00;;;;;;5018046;28;20903;-58
2022/05/17 01:08:47;;;;;;;2.50;2.30;;;20.70;47.10;;;;;;5020519;28;20416;-58
2022/05/17 01:11:13;;;;;;;2.67;2.47;;;20.70;47.10;;;;;;5017917;28;20460;-58
2022/05/17 01:16:24;;;;;;;2.83;2.63;;;20.70;47.20;;;;;;5017706;28;20460;-58
2022/05/17 01:18:51;;;;;;;2.60;2.50;;;20.70;47.10;;;;;;5018643;28;20465;-58
2022/05/17 01:21:16;;;;;;;2.47;2.37;;;20.60;47.10;;;;;;5014844;28;20965;-58
2022/05/17 01:23:42;;;;;;;3.27;2.97;;;20.60;47.00;;;;;;5017901;28;20452;-58
2022/05/17 01:26:12;;;;;;;2.33;2.23;;;20.60;47.10;;;;;;5018806;28;20306;-58
2022/05/17 01:28:38;;;;;;;2.63;2.53;;;20.70;47.10;;;;;;5012875;28;20342;-58
2022/05/17 01:31:05;;;;;;;2.33;2.23;;;20.70;47.10;;;;;;5016078;28;20485;-58
2022/05/17 01:33:32;;;;;;;2.53;2.33;;;20.60;47.20;;;;;;5018016;28;20230;-58
2022/05/17 01:35:59;;;;;;;2.53;2.43;;;20.70;47.10;;;;;;5010768;28;20493;-58
2022/05/17 01:38:26;;;;;;;2.30;2.10;;;20.60;47.10;;;;;;5017258;28;20535;-58
2022/05/17 01:40:52;;;;;;;2.30;2.20;;;20.60;47.10;;;;;;5014174;28;20448;-58
2022/05/17 01:43:18;;;;;;;2.40;2.30;;;20.60;47.10;;;;;;5016720;28;20464;-58
2022/05/17 01:45:43;;;;;;;2.40;2.30;;;20.60;47.00;;;;;;5015016;28;20239;-59
2022/05/17 01:48:09;;;;;;;3.20;2.90;;;20.60;47.10;;;;;;5018186;28;20255;-58
2022/05/17 01:50:35;;;;;;;2.53;2.43;;;20.70;47.10;;;;;;5015585;28;20688;-58
2022/05/17 01:53:00;;;;;;;2.47;2.37;;;20.70;47.10;;;;;;5020748;28;20219;-58
2022/05/17 01:55:26;;;;;;;2.47;2.37;;;20.60;47.00;;;;;;5018121;28;20222;-58
2022/05/17 01:57:51;;;;;;;5.23;2.40;;;20.70;47.10;;;;;;5015614;28;20646;-58
2022/05/17 02:00:19;;;;;;;2.30;2.10;;;20.70;47.10;;;;;;5012252;28;20628;-59
2022/05/17 02:02:45;;;;;;;3.00;2.50;;;20.70;47.10;;;;;;5019024;28;20230;-58
2022/05/17 02:05:11;;;;;;;2.33;2.23;;;20.70;47.10;;;;;;5017204;28;20956;-58
2022/05/17 02:07:36;;;;;;;2.60;2.40;;;20.70;47.10;;;;;;5017420;28;20223;-58
2022/05/17 02:10:03;;;;;;;2.00;1.90;;;20.70;47.10;;;;;;5015289;28;20452;-59
2022/05/17 02:12:28;;;;;;;2.23;2.13;;;20.60;47.00;;;;;;5014298;28;20226;-58
2022/05/17 02:14:54;;;;;;;2.10;2.00;;;20.70;47.10;;;;;;5015629;28;20449;-58
2022/05/17 02:17:20;;;;;;;1.90;1.80;;;20.70;47.10;;;;;;5017266;28;20219;-58
2022/05/17 02:19:45;;;;;;;2.07;1.87;;;20.60;47.00;;;;;;5015759;28;20842;-58
2022/05/17 02:22:11;;;;;;;2.27;2.17;;;20.60;47.00;;;;;;5013126;28;20247;-58
2022/05/17 02:24:37;;;;;;;2.50;2.40;;;20.60;47.10;;;;;;5017767;28;20224;-57
2022/05/17 02:27:03;;;;;;;2.60;2.50;;;20.60;47.00;;;;;;5013169;28;20220;-59
2022/05/17 02:29:30;;;;;;;2.90;2.77;;;20.60;47.00;;;;;;5016816;28;20216;-58
2022/05/17 02:31:56;;;;;;;2.40;2.20;;;20.60;47.10;;;;;;5017134;28;20238;-58
2022/05/17 02:34:21;;;;;;;2.30;2.20;;;20.70;47.10;;;;;;5016146;28;20442;-58
2022/05/17 02:36:47;;;;;;;2.20;2.10;;;20.70;47.10;;;;;;5015832;28;20506;-58
2022/05/17 02:39:13;;;;;;;2.33;2.23;;;20.60;47.10;;;;;;5016909;28;20265;-58
2022/05/17 02:41:39;;;;;;;2.63;2.43;;;20.60;47.00;;;;;;5017695;28;20230;-58
2022/05/17 02:44:04;;;;;;;2.50;2.40;;;20.60;47.00;;;;;;5017283;28;20477;-58
2022/05/17 02:46:32;;;;;;;2.50;2.30;;;20.60;47.00;;;;;;5015935;28;20549;-58
2022/05/17 02:48:58;;;;;;;2.60;2.40;;;20.60;47.00;;;;;;5014208;28;20212;-59
2022/05/17 02:51:24;;;;;;;2.30;2.20;;;20.60;47.10;;;;;;5012020;28;20452;-58
2022/05/17 02:53:50;;;;;;;2.67;2.53;;;20.60;47.00;;;;;;5014865;28;20461;-58
2022/05/17 02:56:15;;;;;;;2.27;2.17;;;20.60;47.10;;;;;;5016373;28;20262;-58
2022/05/17 02:58:41;;;;;;;2.33;2.23;;;20.60;47.10;;;;;;5015472;28;20230;-58
2022/05/17 03:01:08;;;;;;;2.23;2.13;;;20.60;47.80;;;;;;5015336;28;20665;-58
2022/05/17 03:03:40;;;;;;;2.03;1.93;;;20.60;47.00;;;;;;5016633;28;20246;-58
2022/05/17 03:06:08;;;;;;;2.37;2.27;;;20.70;47.10;;;;;;5020031;28;20480;-59
2022/05/17 03:08:33;;;;;;;2.50;2.30;;;20.60;47.00;;;;;;5023883;28;20999;-58
2022/05/17 03:10:59;;;;;;;2.33;2.23;;;20.60;47.00;;;;;;5019267;28;20527;-58
2022/05/17 03:13:25;;;;;;;2.10;2.00;;;20.60;47.00;;;;;;5015967;28;20679;-58
2022/05/17 03:15:51;;;;;;;2.40;2.30;;;20.60;47.10;;;;;;5020317;28;20318;-58
2022/05/17 03:18:17;;;;;;;2.20;2.10;;;20.60;47.00;;;;;;5025075;28;20227;-58
2022/05/17 03:20:43;;;;;;;2.40;2.30;;;20.60;47.00;;;;;;5017631;28;20445;-58
2022/05/17 03:23:08;;;;;;;2.23;2.13;;;20.60;47.00;;;;;;5018523;28;20290;-58
2022/05/17 03:25:34;;;;;;;2.33;2.23;;;20.60;47.00;;;;;;5017061;28;20242;-59
2022/05/17 03:28:00;;;;;;;2.50;2.30;;;20.60;47.00;;;;;;5020633;28;20717;-58
2022/05/17 03:30:25;;;;;;;2.30;2.20;;;20.60;47.00;;;;;;5020500;28;20262;-58
2022/05/17 03:32:51;;;;;;;2.47;2.30;;;20.60;47.00;;;;;;5021861;28;20231;-58
2022/05/17 03:35:17;;;;;;;2.40;2.30;;;20.60;47.10;;;;;;5017772;28;20300;-58
2022/05/17 03:37:43;;;;;;;2.30;2.20;;;20.60;47.10;;;;;;5017374;28;20236;-58
2022/05/17 03:40:10;;;;;;;2.60;2.40;;;20.60;47.10;;;;;;5019571;28;20456;-58
2022/05/17 03:42:35;;;;;;;2.23;2.13;;;20.60;47.00;;;;;;5021373;28;20231;-58
2022/05/17 03:45:02;;;;;;;2.37;2.27;;;20.60;47.10;;;;;;5018755;28;20514;-60
2022/05/17 03:47:28;;;;;;;2.30;2.20;;;20.60;47.10;;;;;;5016219;28;20274;-57
2022/05/17 03:49:53;;;;;;;3.50;1.97;;;20.60;47.00;;;;;;5018608;28;20802;-57
2022/05/17 03:52:24;;;;;;;2.20;2.00;;;20.60;47.10;;;;;;5018523;28;20745;-58
2022/05/17 03:54:55;;;;;;;2.00;1.90;;;20.60;47.10;;;;;;5019714;28;20350;-58
2022/05/17 03:57:20;;;;;;;2.30;2.20;;;20.60;47.00;;;;;;5019707;28;20448;-58
2022/05/17 03:59:46;;;;;;;2.50;2.30;;;20.60;47.10;;;;;;5016547;28;20432;-58
2022/05/17 04:02:11;;;;;;;2.30;2.20;;;20.60;47.10;;;;;;5020714;28;20302;-58
2022/05/17 04:04:37;;;;;;;2.47;2.27;;;20.60;47.00;;;;;;5019203;28;20250;-58
2022/05/17 04:07:03;;;;;;;2.60;2.40;;;20.60;47.10;;;;;;5021880;28;20235;-59
2022/05/17 04:09:29;;;;;;;2.07;1.97;;;20.60;47.00;;;;;;5015085;28;20239;-58
2022/05/17 04:11:55;;;;;;;2.20;2.00;;;20.60;47.10;;;;;;5017855;28;20219;-58
2022/05/17 04:14:20;;;;;;;2.43;2.33;;;20.60;47.10;;;;;;5017799;28;20250;-58
2022/05/17 04:16:46;;;;;;;2.10;2.00;;;20.60;47.00;;;;;;5017728;28;20460;-58
2022/05/17 04:19:14;;;;;;;2.30;2.20;;;20.60;47.00;;;;;;5022063;28;20570;-58
2022/05/17 04:21:39;;;;;;;2.70;2.60;;;20.60;47.00;;;;;;5019500;28;20227;-57
2022/05/17 04:24:05;;;;;;;2.30;2.20;;;20.60;47.00;;;;;;5017812;28;20810;-58
2022/05/17 04:26:31;;;;;;;2.00;1.90;;;20.60;47.00;;;;;;5020259;28;20224;-58
2022/05/17 04:28:56;;;;;;;2.00;1.90;;;20.60;47.10;;;;;;5022939;28;20226;-58
2022/05/17 04:31:22;;;;;;;2.57;2.47;;;20.60;47.00;;;;;;5015251;28;20246;-58
2022/05/17 04:33:48;;;;;;;2.20;2.10;;;20.60;47.00;;;;;;5017941;28;20230;-58
2022/05/17 04:36:13;;;;;;;2.47;1.97;;;20.60;47.00;;;;;;5015179;28;20227;-60
2022/05/17 04:38:39;;;;;;;2.43;2.33;;;20.60;47.00;;;;;;5020028;28;20719;-59
2022/05/17 04:41:05;;;;;;;2.80;2.20;;;20.60;47.00;;;;;;5016650;28;20243;-61
2022/05/17 04:43:30;;;;;;;2.13;2.03;;;20.60;47.00;;;;;;5018669;28;20231;-60
2022/05/17 04:45:57;;;;;;;2.30;2.20;;;20.60;47.10;;;;;;5010884;28;20728;-59
2022/05/17 04:48:25;;;;;;;2.33;2.03;;;20.60;47.00;;;;;;5019938;28;20250;-59
2022/05/17 04:50:52;;;;;;;1.90;1.80;;;20.70;46.90;;;;;;5005672;28;20489;-59
2022/05/17 04:53:18;;;;;;;2.27;2.17;;;20.70;46.90;;;;;;5011615;28;20548;-59
2022/05/17 04:55:43;;;;;;;2.20;2.10;;;20.70;47.70;;;;;;5016150;28;20766;-59
2022/05/17 04:58:09;;;;;;;2.30;2.20;;;20.70;46.90;;;;;;5016870;28;21004;-62
2022/05/17 05:00:35;;;;;;;2.07;1.97;;;20.70;46.90;;;;;;5017987;28;20223;-61
2022/05/17 05:03:01;;;;;;;2.50;2.40;;;20.70;46.90;;;;;;5018449;28;20240;-60
2022/05/17 05:05:27;;;;;;;2.43;2.33;;;20.70;46.80;;;;;;5017101;28;20310;-60
2022/05/17 05:07:53;;;;;;;2.87;2.67;;;20.60;47.50;;;;;;5014983;28;20258;-59
2022/05/17 05:10:20;;;;;;;2.30;2.20;;;20.70;46.80;;;;;;5016689;28;20488;-59
2022/05/17 05:12:46;;;;;;;2.57;2.37;;;20.70;46.80;;;;;;5017994;28;20507;-59
2022/05/17 05:15:12;;;;;;;2.50;2.40;;;20.70;46.80;;;;;;5019306;28;20444;-59
2022/05/17 05:17:38;;;;;;;2.00;1.90;;;20.70;46.80;;;;;;5019323;28;20453;-59
2022/05/17 05:20:08;;;;;;;2.43;2.23;;;20.70;46.80;;;;;;5015316;28;20446;-59
2022/05/17 05:22:34;;;;;;;2.70;2.50;;;20.70;46.80;;;;;;5013024;28;20819;-59
2022/05/17 05:25:00;;;;;;;2.20;2.00;;;20.70;46.80;;;;;;5016432;28;20450;-59
2022/05/17 05:27:30;;;;;;;2.33;2.20;;;20.70;46.80;;;;;;5013944;28;20432;-59
2022/05/17 05:29:56;;;;;;;2.40;2.30;;;20.70;46.70;;;;;;5018560;28;20459;-59
2022/05/17 05:32:21;;;;;;;3.57;2.10;;;20.70;46.80;;;;;;5016696;28;20425;-59
2022/05/17 05:34:47;;;;;;;2.50;2.40;;;20.70;46.80;;;;;;5015542;28;20227;-58
2022/05/17 05:37:12;;;;;;;2.10;2.00;;;20.70;46.80;;;;;;5011567;28;20239;-60
2022/05/17 05:39:38;;;;;;;2.53;2.43;;;20.70;46.80;;;;;;5019687;28;20223;-59
2022/05/17 05:42:05;;;;;;;2.13;2.03;;;20.70;46.80;;;;;;5018476;28;20630;-61
2022/05/17 05:44:33;;;;;;;2.33;2.13;;;20.70;46.80;;;;;;5012551;28;20943;-59
2022/05/17 05:46:59;;;;;;;2.40;2.27;;;20.70;46.80;;;;;;5016596;28;20824;-59
2022/05/17 05:49:24;;;;;;;2.13;2.03;;;20.70;46.80;;;;;;5015248;28;20921;-59
2022/05/17 05:51:50;;;;;;;2.30;2.20;;;20.70;46.80;;;;;;5013721;28;20704;-59
2022/05/17 05:54:17;;;;;;;2.27;2.13;;;20.70;46.80;;;;;;5016321;28;20235;-59
2022/05/17 05:56:42;;;;;;;2.47;2.33;;;20.70;46.90;;;;;;5013973;28;20255;-59
2022/05/17 05:59:09;;;;;;;2.23;2.13;;;20.70;46.80;;;;;;5013620;28;20584;-59
2022/05/17 06:01:35;;;;;;;2.10;2.00;;;20.70;46.80;;;;;;5017147;28;20261;-60
2022/05/17 06:04:01;;;;;;;2.40;2.30;;;20.70;46.80;;;;;;5016047;28;20468;-58
2022/05/17 06:06:27;;;;;;;2.60;2.40;;;20.70;46.80;;;;;;5011028;28;20833;-58
2022/05/17 06:08:53;;;;;;;2.40;2.30;;;20.70;46.80;;;;;;5017895;28;20219;-58
2022/05/17 06:11:19;;;;;;;2.97;2.77;;;20.70;46.80;;;;;;5012676;28;20526;-58
2022/05/17 06:13:44;;;;;;;2.10;1.93;;;20.70;46.80;;;;;;5017216;28;20455;-58
2022/05/17 06:16:10;;;;;;;2.00;1.90;;;20.70;46.80;;;;;;5012247;28;20306;-58
2022/05/17 06:18:37;;;;;;;2.10;2.00;;;20.70;46.80;;;;;;5012690;28;20218;-59
2022/05/17 06:21:02;;;;;;;2.20;2.10;;;20.70;46.80;;;;;;5012009;28;20452;-59
2022/05/17 06:23:28;;;;;;;2.40;2.30;;;20.70;46.80;;;;;;5016862;28;20464;-58
2022/05/17 06:25:54;;;;;;;2.73;2.63;;;20.70;46.80;;;;;;5008992;28;20322;-59
2022/05/17 06:28:20;;;;;;;2.57;2.10;;;20.70;46.80;;;;;;5007267;28;20223;-59
2022/05/17 06:30:45;;;;;;;2.80;2.60;;;20.70;46.80;;;;;;5009997;28;20219;-59
2022/05/17 06:33:13;;;;;;;2.20;2.10;;;20.70;46.80;;;;;;5014233;28;20266;-58
2022/05/17 06:35:39;;;;;;;2.23;2.13;;;20.70;46.80;;;;;;5011033;28;20682;-59
2022/05/17 06:38:05;;;;;;;2.30;2.10;;;20.70;46.90;;;;;;5016797;28;20869;-58
2022/05/17 06:40:32;;;;;;;2.30;2.20;;;20.70;46.80;;;;;;5016158;28;20471;-60
2022/05/17 06:42:59;;;;;;;2.53;2.33;;;20.70;46.80;;;;;;5015120;28;20457;-58
2022/05/17 06:45:25;;;;;;;2.27;2.17;;;20.70;46.80;;;;;;5019467;28;20946;-58
2022/05/17 06:47:50;;;;;;;2.17;2.07;;;20.70;46.90;;;;;;5014905;28;20435;-58
2022/05/17 06:50:16;;;;;;;2.27;2.17;;;20.70;46.80;;;;;;5016885;28;20486;-57
2022/05/17 06:52:44;;;;;;;2.27;2.17;;;20.70;46.80;;;;;;5019662;28;20293;-58
2022/05/17 06:55:10;;;;;;;3.50;2.27;;;20.70;46.80;;;;;;5016440;28;20298;-58
2022/05/17 06:57:36;;;;;;;2.00;1.90;;;20.70;46.80;;;;;;5017540;28;21197;-58
2022/05/17 07:00:05;;;;;;;2.10;2.00;;;20.70;46.80;;;;;;5020294;28;20285;-57
2022/05/17 07:02:32;;;;;;;2.47;2.37;;;20.70;46.80;;;;;;5013970;28;20534;-58
2022/05/17 07:04:59;;;;;;;2.73;2.63;;;20.70;46.90;;;;;;5014379;28;20441;-61
2022/05/17 07:07:26;;;;;;;3.10;2.90;;;20.70;46.80;;;;;;5016273;28;20464;-59
2022/05/17 07:15:20;;;;;;;3.13;2.93;;;20.70;46.80;;;;;;5019327;28;21803;-58
2022/05/17 07:17:47;;;;;;;2.90;2.70;;;20.70;46.80;;;;;;5016015;28;20440;-58
2022/05/17 07:20:13;;;;;;;3.90;3.63;;;20.70;46.80;;;;;;5016341;28;20250;-58
2022/05/17 07:22:39;;;;;;;4.60;3.73;;;20.70;46.80;;;;;;5018524;28;20460;-58
2022/05/17 07:25:07;;;;;;;4.67;4.20;;;20.70;46.80;;;;;;5017616;28;20495;-58
2022/05/17 07:27:33;;;;;;;4.20;3.80;;;20.70;46.90;;;;;;5021160;28;20957;-58
2022/05/17 07:29:58;;;;;;;5.63;4.97;;;20.70;46.80;;;;;;5018247;28;20459;-58
2022/05/17 07:32:24;;;;;;;4.63;4.33;;;20.70;46.80;;;;;;5013805;28;20224;-58
2022/05/17 07:34:50;;;;;;;4.10;3.90;;;20.70;46.80;;;;;;5017897;28;20223;-58
2022/05/17 07:37:16;;;;;;;6.20;5.43;;;20.70;46.80;;;;;;5015317;28;20235;-58
2022/05/17 07:39:42;;;;;;;5.57;5.13;;;20.70;46.80;;;;;;5015678;28;20236;-58
2022/05/17 07:42:08;;;;;;;5.57;5.07;;;20.70;46.90;;;;;;5017820;28;20942;-58
2022/05/17 07:44:35;;;;;;;5.93;5.37;;;20.70;47.60;;;;;;5017939;28;20307;-58
2022/05/17 07:47:01;;;;;;;6.73;6.20;;;20.70;46.90;;;;;;5018846;28;20457;-58
2022/05/17 07:49:27;;;;;;;17.00;12.47;;;20.70;46.80;;;;;;5017659;28;20451;-59
2022/05/17 07:51:54;;;;;;;15.67;10.33;;;20.70;46.70;;;;;;5017790;28;20440;-59
2022/05/17 07:54:20;;;;;;;9.63;7.97;;;20.70;47.40;;;;;;5022506;28;20443;-59
2022/05/17 07:56:46;;;;;;;10.00;8.00;;;20.70;46.60;;;;;;5020960;28;20449;-58
2022/05/17 07:59:11;;;;;;;8.67;7.60;;;20.70;46.50;;;;;;5019730;28;20584;-58
2022/05/17 08:01:37;;;;;;;8.90;8.00;;;20.70;46.60;;;;;;5011396;28;20797;-58
2022/05/17 08:04:03;;;;;;;11.20;8.73;;;20.70;46.70;;;;;;5016066;28;20265;-58
2022/05/17 08:06:29;;;;;;;10.73;7.63;;;20.70;46.60;;;;;;5022143;28;20669;-58
2022/05/17 08:08:54;;;;;;;11.60;9.20;;;20.70;46.60;;;;;;5015640;28;20219;-58
2022/05/17 08:11:20;;;;;;;7.70;7.00;;;20.70;46.60;;;;;;5019084;28;20677;-57
2022/05/17 08:13:46;;;;;;;9.43;7.80;;;20.70;46.60;;;;;;5016623;28;20997;-57
2022/05/17 08:16:11;;;;;;;8.13;7.43;;;20.70;46.70;;;;;;5017596;28;20232;-58
2022/05/17 08:18:37;;;;;;;8.03;7.23;;;20.70;46.60;;;;;;5019363;28;20452;-58
2022/05/17 08:21:03;;;;;;;7.70;7.00;;;20.70;46.70;;;;;;5020326;28;20227;-58
2022/05/17 08:23:29;;;;;;;8.57;7.40;;;20.70;46.80;;;;;;5014893;28;20255;-58
2022/05/17 08:28:38;;;;;;;8.63;7.50;;;20.70;46.80;;;;;;5015906;28;20226;-58
2022/05/17 08:31:04;;;;;;;8.17;7.37;;;20.70;46.70;;;;;;5014504;28;20449;-58
2022/05/17 08:33:30;;;;;;;8.60;7.70;;;20.70;46.70;;;;;;5021596;28;20230;-60
2022/05/17 08:36:02;;;;;;;7.13;6.43;;;20.70;46.80;;;;;;5019854;28;20256;-59
2022/05/17 08:38:43;;;;;;;7.43;6.70;;;20.70;46.80;;;;;;5010691;28;20884;-58
2022/05/17 08:41:25;;;;;;;12.23;7.97;;;20.70;46.70;;;;;;5015333;28;20432;-58
2022/05/17 08:43:54;;;;;;;7.23;6.53;;;20.70;46.80;;;;;;5016570;28;20472;-58
2022/05/17 08:46:44;;;;;;;7.63;7.03;;;20.70;46.80;;;;;;5016723;28;20462;-58
2022/05/17 08:49:33;;;;;;;7.20;6.60;;;20.70;46.80;;;;;;5020285;28;20423;-58
2022/05/17 08:52:17;;;;;;;6.90;6.10;;;20.70;46.70;;;;;;5013569;28;20506;-57
2022/05/17 08:54:48;;;;;;;8.70;7.80;;;20.70;46.70;;;;;;5013743;28;20514;-57
2022/05/17 08:57:40;;;;;;;7.87;7.13;;;20.70;46.80;;;;;;5015749;28;20457;-58
2022/05/17 09:00:32;;;;;;;7.37;6.67;;;20.70;46.80;;;;;;5014023;28;20432;-57
2022/05/17 09:03:13;;;;;;;7.60;6.90;;;20.70;46.80;;;;;;5015189;28;20442;-57
2022/05/17 09:05:52;;;;;;;7.70;6.90;;;20.70;46.80;;;;;;5012310;28;20412;-58
2022/05/17 09:08:31;;;;;;;7.53;6.80;;;20.70;46.80;;;;;;5011122;28;20436;-57
2022/05/17 09:11:11;;;;;;;7.70;7.00;;;20.70;46.80;;;;;;5014179;28;20802;-57
2022/05/17 09:14:01;;;;;;;7.47;6.60;;;20.70;46.80;;;;;;5015679;28;20457;-57
2022/05/17 09:16:39;;;;;;;7.97;7.17;;;20.70;46.80;;;;;;5012851;28;20419;-57
2022/05/17 09:19:05;;;;;;;7.80;7.10;;;20.70;46.80;;;;;;5014934;28;20498;-58
2022/05/17 09:21:32;;;;;;;7.17;6.17;;;20.70;46.80;;;;;;5008259;28;20850;-58
2022/05/17 09:24:03;;;;;;;7.17;6.50;;;20.70;46.80;;;;;;5020493;28;20241;-58
2022/05/17 09:26:29;;;;;;;6.53;5.97;;;20.70;46.80;;;;;;5016408;28;20453;-58
2022/05/17 09:29:18;;;;;;;7.80;7.13;;;20.70;46.90;;;;;;5014847;28;20437;-58
2022/05/17 09:31:59;;;;;;;6.87;6.30;;;20.70;46.80;;;;;;5015111;28;20459;-57
2022/05/17 09:34:35;;;;;;;7.70;6.63;;;20.70;46.80;;;;;;5014233;28;20520;-57
2022/05/17 09:37:09;;;;;;;7.40;6.53;;;20.70;46.80;;;;;;5013892;28;20508;-58
2022/05/17 09:39:35;;;;;;;7.20;6.60;;;20.70;46.80;;;;;;5017274;28;20464;-56
2022/05/17 09:42:04;;;;;;;6.60;6.00;;;20.70;46.80;;;;;;5013021;28;20453;-59
2022/05/17 09:44:33;;;;;;;6.63;6.03;;;20.70;46.80;;;;;;5014482;28;20464;-58
2022/05/17 09:47:03;;;;;;;7.33;6.73;;;20.70;46.80;;;;;;5016458;28;20908;-57
2022/05/17 09:52:46;;;;;;;6.07;5.57;;;20.70;46.80;;;;;;5012697;28;20459;-59
2022/05/17 09:55:25;;;;;;;6.00;5.47;;;20.70;46.80;;;;;;5020355;28;20465;-58
2022/05/17 09:58:09;;;;;;;7.57;6.80;;;20.70;46.60;;;;;;5012289;28;20449;-58
2022/05/17 10:00:44;;;;;;;6.60;5.83;;;20.70;46.60;;;;;;5018048;28;20455;-57
2022/05/17 10:03:15;;;;;;;6.40;6.00;;;20.70;46.50;;;;;;5013423;28;20518;-58
2022/05/17 10:05:48;;;;;;;6.57;5.90;;;20.70;46.40;;;;;;5007674;28;20450;-57
2022/05/17 10:08:14;;;;;;;11.20;6.60;;;20.70;46.40;;;;;;5016176;28;20521;-57
2022/05/17 10:10:45;;;;;;;6.13;5.63;;;20.70;46.40;;;;;;5018106;28;20430;-58
2022/05/17 10:13:32;;;;;;;6.30;5.80;;;20.70;46.30;;;;;;5015384;28;20251;-57
2022/05/17 10:16:04;;;;;;;6.87;6.27;;;20.70;46.30;;;;;;5014553;28;20437;-58
2022/05/17 10:18:42;;;;;;;6.83;6.20;;;20.70;46.40;;;;;;5015665;28;20447;-58
2022/05/17 10:21:35;;;;;;;6.47;5.73;;;20.70;46.40;;;;;;5015233;28;21022;-57
2022/05/17 10:24:20;;;;;;;6.60;6.00;;;20.70;46.40;;;;;;5008511;28;20600;-59
2022/05/17 10:26:57;;;;;;;7.20;6.50;;;20.70;46.40;;;;;;5015356;28;20532;-58
2022/05/17 10:29:30;;;;;;;6.90;6.30;;;20.60;46.40;;;;;;5012503;28;20443;-58
2022/05/17 10:32:05;;;;;;;6.60;6.00;;;20.70;46.50;;;;;;5013378;28;20488;-58
2022/05/17 10:34:50;;;;;;;6.43;5.90;;;20.70;46.50;;;;;;5007328;28;21151;-58
2022/05/17 10:37:21;;;;;;;6.40;5.87;;;20.70;46.50;;;;;;5012119;28;20440;-58
2022/05/17 10:40:14;;;;;;;5.70;5.30;;;20.70;46.50;;;;;;5015402;28;20431;-58
2022/05/17 10:42:41;;;;;;;13.07;6.43;;;20.70;46.40;;;;;;5001446;28;20508;-58
2022/05/17 10:45:15;;;;;;;5.70;5.30;;;20.70;46.50;;;;;;5013440;28;20484;-58
2022/05/17 10:47:54;;;;;;;6.20;5.70;;;20.70;46.50;;;;;;5013205;28;20473;-58
2022/05/17 10:50:46;;;;;;;6.03;5.53;;;20.70;46.50;;;;;;5008264;28;20466;-58
2022/05/17 10:53:46;;;;;;;6.00;5.60;;;20.70;46.50;;;;;;5013680;28;20462;-58
2022/05/17 10:56:36;;;;;;;6.50;5.90;;;20.70;46.60;;;;;;5009327;28;20447;-58
2022/05/17 10:59:13;;;;;;;5.80;5.37;;;20.60;46.50;;;;;;5015020;28;20551;-58
2022/05/17 11:02:01;;;;;;;5.50;5.10;;;20.60;46.50;;;;;;5014369;28;20487;-58
2022/05/17 11:04:59;;;;;;;5.80;5.50;;;20.60;46.60;;;;;;5012626;28;20538;-58
2022/05/17 11:07:42;;;;;;;5.57;5.03;;;20.60;46.60;;;;;;5015799;28;20816;-59
2022/05/17 11:10:15;;;;;;;5.43;5.03;;;20.60;46.60;;;;;;5013809;28;20453;-59
2022/05/17 11:12:50;;;;;;;6.10;5.60;;;20.60;46.70;;;;;;5014189;28;20541;-58
2022/05/17 11:15:28;;;;;;;5.87;5.50;;;20.60;46.60;;;;;;5013586;28;20427;-59
2022/05/17 11:18:02;;;;;;;5.23;4.93;;;20.60;46.60;;;;;;5011513;28;20436;-59
2022/05/17 11:20:38;;;;;;;5.67;5.27;;;20.70;46.70;;;;;;5014430;28;20455;-58
2022/05/17 11:23:41;;;;;;;6.40;5.87;;;20.70;46.80;;;;;;5011837;28;20530;-59
2022/05/17 11:26:18;;;;;;;5.93;5.33;;;20.60;46.70;;;;;;5015728;28;20447;-58
2022/05/17 11:28:44;;;;;;;5.30;4.90;;;20.60;46.70;;;;;;5018034;28;20471;-58
2022/05/17 11:31:18;;;;;;;5.37;4.97;;;20.60;46.70;;;;;;5014150;28;20453;-57
2022/05/17 11:33:43;;;;;;;5.77;5.37;;;20.60;46.70;;;;;;5016995;28;20468;-59
2022/05/17 11:36:23;;;;;;;6.40;5.87;;;20.60;46.70;;;;;;5017823;28;20424;-58
2022/05/17 11:38:51;;;;;;;5.07;4.70;;;20.60;46.80;;;;;;5012847;28;20612;-58
2022/05/17 11:41:22;;;;;;;5.23;4.80;;;20.60;46.80;;;;;;5016643;28;20449;-58
2022/05/17 11:43:51;;;;;;;4.50;4.23;;;20.60;46.80;;;;;;5018452;28;20470;-58
2022/05/17 11:46:28;;;;;;;5.27;4.87;;;20.60;46.80;;;;;;5017836;28;20506;-58
2022/05/17 11:48:59;;;;;;;5.43;5.03;;;20.60;46.80;;;;;;5013479;28;20416;-58
2022/05/17 11:51:31;;;;;;;5.00;4.60;;;20.60;46.80;;;;;;5016193;28;20942;-57
2022/05/17 11:53:57;;;;;;;4.90;4.37;;;20.60;46.80;;;;;;5015984;28;20419;-58
2022/05/17 11:56:25;;;;;;;5.70;5.20;;;20.60;46.80;;;;;;5014809;28;20503;-57
2022/05/17 11:58:54;;;;;;;4.80;4.50;;;20.60;46.80;;;;;;5018132;28;20453;-58
2022/05/17 12:01:31;;;;;;;4.87;4.50;;;20.60;46.80;;;;;;5010205;28;20802;-57
2022/05/17 12:04:23;;;;;;;4.57;4.20;;;20.60;46.80;;;;;;5039125;28;20855;-57
2022/05/17 12:06:48;;;;;;;4.47;4.00;;;20.60;46.80;;;;;;5033046;28;20930;-57
2022/05/17 12:09:22;;;;;;;4.90;4.57;;;20.70;46.90;;;;;;5035816;28;20456;-57
2022/05/17 12:12:09;;;;;;;4.30;4.00;;;20.60;46.80;;;;;;5038550;28;20217;-57
2022/05/17 12:14:59;;;;;;;4.40;4.10;;;20.60;46.80;;;;;;5037604;28;20445;-57
2022/05/17 12:17:33;;;;;;;4.37;4.00;;;20.60;46.80;;;;;;5033834;28;20481;-57
2022/05/17 12:20:17;;;;;;;4.97;4.57;;;20.60;46.90;;;;;;5036745;28;20492;-57
2022/05/17 12:22:48;;;;;;;3.97;3.20;;;20.60;46.90;;;;;;5038491;28;20443;-57
2022/05/17 12:25:23;;;;;;;3.80;3.60;;;20.60;46.80;;;;;;5031099;28;20428;-57
2022/05/17 12:27:48;;;;;;;4.00;3.77;;;20.60;46.90;;;;;;5038977;28;21003;-57
2022/05/17 12:33:33;;;;;;;3.70;3.47;;;20.60;46.80;;;;;;5037426;28;20342;-57
2022/05/17 12:36:20;;;;;;;32.17;7.30;;;20.60;46.80;;;;;;5033116;28;20765;-58
2022/05/17 12:44:46;;;;;;;6.40;3.73;;;20.70;46.70;;;;;;5033389;28;20438;-58
2022/05/17 12:47:21;;;;;;;4.17;3.77;;;20.70;46.80;;;;;;5040434;28;20427;-58
2022/05/17 12:49:56;;;;;;;3.70;3.40;;;20.70;46.90;;;;;;5037041;28;20808;-58
2022/05/17 12:52:34;;;;;;;3.93;3.73;;;20.70;46.90;;;;;;5033509;28;20477;-59
2022/05/17 12:55:21;;;;;;;7.40;3.30;;;20.70;46.90;;;;;;5034285;28;20711;-58
2022/05/17 12:57:47;;;;;;;4.83;4.43;;;20.70;46.90;;;;;;5039167;28;20422;-58
2022/05/17 13:00:30;;;;;;;4.27;3.60;;;20.70;46.90;;;;;;5034464;28;20422;-60
2022/05/17 13:03:02;;;;;;;3.73;3.43;;;20.70;47.00;;;;;;5033239;28;20499;-59
2022/05/17 13:05:43;;;;;;;3.80;3.50;;;20.70;47.00;;;;;;5036191;28;20466;-58
2022/05/17 13:08:11;;;;;;;3.30;3.10;;;20.70;46.90;;;;;;5031697;28;20431;-59
2022/05/17 13:10:41;;;;;;;3.37;3.17;;;20.70;47.10;;;;;;5034443;28;20427;-59
2022/05/17 13:13:15;;;;;;;3.47;3.27;;;20.70;47.00;;;;;;5031269;28;20467;-59
2022/05/17 13:15:45;;;;;;;3.40;3.20;;;20.70;47.00;;;;;;5031150;28;20453;-58
2022/05/17 13:18:12;;;;;;;3.13;2.93;;;20.70;47.00;;;;;;5033213;28;20491;-57
2022/05/17 13:20:38;;;;;;;3.30;3.10;;;20.70;47.00;;;;;;5031947;28;20427;-58
2022/05/17 13:23:06;;;;;;;3.37;3.17;;;20.70;47.00;;;;;;5038146;28;20474;-59